Terminal Aerodrome Forecast
Issued by NWS

Home | Current Version | Previous Version | Text Only | Print | Product List | Glossary On
Versions: 1 2 3 4 5 6 7 8 9 10 11 12 13 14 15 16 17 18 19 20 21
027
FTPA31 PHFO 281120
TAFHNY
TAF
PHNY 281120Z 2812/2912 VRB03KT P6SM FEW015 SCT045
      TEMPO 2815/2817 5SM BR
     FM282000 28007KT P6SM VCSH BKN018 BKN035
     FM290300 VRB05KT P6SM VCSH SCT018 BKN035
     FM290700 05005KT P6SM FEW018 SCT040=

USA.gov is the U.S. government's official web portal to all federal, state and local government web resources and services.